sensor_id;sensor_type;location;lat;lon;timestamp;pressure;altitude;pressure_sealevel;temperature;humidity
17373;BME280;8803;48.116;11.590;2024-03-29T00:03:19;94348.65;;;8.44;100.00
17373;BME280;8803;48.116;11.590;2024-03-29T00:07:38;94344.39;;;8.51;100.00
17373;BME280;8803;48.116;11.590;2024-03-29T00:11:54;94339.13;;;8.59;100.00
17373;BME280;8803;48.116;11.590;2024-03-29T00:16:13;94331.66;;;8.58;100.00
17373;BME280;8803;48.116;11.590;2024-03-29T00:20:30;94330.63;;;8.47;100.00
17373;BME280;8803;48.116;11.590;2024-03-29T00:24:48;94330.11;;;8.48;100.00
17373;BME280;8803;48.116;11.590;2024-03-29T00:29:07;94312.30;;;8.32;100.00
17373;BME280;8803;48.116;11.590;2024-03-29T00:33:25;94310.44;;;8.29;100.00
17373;BME280;8803;48.116;11.590;2024-03-29T00:37:44;94296.41;;;8.15;100.00
17373;BME280;8803;48.116;11.590;2024-03-29T00:42:03;94270.94;;;7.96;100.00
17373;BME280;8803;48.116;11.590;2024-03-29T00:46:21;94278.72;;;7.97;100.00
17373;BME280;8803;48.116;11.590;2024-03-29T00:50:40;94275.29;;;8.01;100.00
17373;BME280;8803;48.116;11.590;2024-03-29T00:54:59;94281.10;;;8.05;100.00
17373;BME280;8803;48.116;11.590;2024-03-29T00:59:18;94283.22;;;7.97;100.00
17373;BME280;8803;48.116;11.590;2024-03-29T01:03:36;94281.12;;;8.09;100.00
17373;BME280;8803;48.116;11.590;2024-03-29T01:07:55;94273.31;;;8.03;100.00
17373;BME280;8803;48.116;11.590;2024-03-29T01:12:13;94269.83;;;8.03;100.00
17373;BME280;8803;48.116;11.590;2024-03-29T01:16:30;94257.18;;;7.71;100.00
17373;BME280;8803;48.116;11.590;2024-03-29T01:20:49;94243.53;;;7.83;100.00
17373;BME280;8803;48.116;11.590;2024-03-29T01:22:54;94245.06;;;7.68;100.00
17373;BME280;8803;48.116;11.590;2024-03-29T01:27:13;94244.47;;;7.78;100.00
17373;BME280;8803;48.116;11.590;2024-03-29T01:31:31;94229.07;;;7.74;100.00
17373;BME280;8803;48.116;11.590;2024-03-29T01:35:50;94198.60;;;7.31;100.00
17373;BME280;8803;48.116;11.590;2024-03-29T01:40:12;94190.64;;;7.48;100.00
17373;BME280;8803;48.116;11.590;2024-03-29T01:46:45;94172.64;;;7.56;100.00
17373;BME280;8803;48.116;11.590;2024-03-29T01:51:06;94173.53;;;7.64;100.00
17373;BME280;8803;48.116;11.590;2024-03-29T01:55:26;94180.30;;;7.59;100.00
17373;BME280;8803;48.116;11.590;2024-03-29T01:59:44;94195.88;;;7.66;100.00
17373;BME280;8803;48.116;11.590;2024-03-29T02:04:04;94182.50;;;7.67;100.00
17373;BME280;8803;48.116;11.590;2024-03-29T02:08:22;94184.87;;;7.78;100.00
17373;BME280;8803;48.116;11.590;2024-03-29T02:12:39;94175.74;;;7.73;100.00
17373;BME280;8803;48.116;11.590;2024-03-29T02:16:58;94177.25;;;7.75;100.00
17373;BME280;8803;48.116;11.590;2024-03-29T02:19:03;94177.20;;;7.67;100.00
17373;BME280;8803;48.116;11.590;2024-03-29T02:23:23;94182.38;;;7.51;100.00
17373;BME280;8803;48.116;11.590;2024-03-29T02:27:42;94178.97;;;7.37;100.00
17373;BME280;8803;48.116;11.590;2024-03-29T02:32:01;94177.17;;;7.20;100.00
17373;BME280;8803;48.116;11.590;2024-03-29T02:36:20;94176.85;;;7.01;100.00
17373;BME280;8803;48.116;11.590;2024-03-29T02:40:40;94176.85;;;7.19;100.00
17373;BME280;8803;48.116;11.590;2024-03-29T02:44:59;94174.91;;;7.25;100.00
17373;BME280;8803;48.116;11.590;2024-03-29T02:49:18;94162.03;;;7.30;100.00
17373;BME280;8803;48.116;11.590;2024-03-29T02:53:37;94167.69;;;7.13;100.00
17373;BME280;8803;48.116;11.590;2024-03-29T03:00:16;94166.39;;;6.78;100.00
17373;BME280;8803;48.116;11.590;2024-03-29T03:04:33;94160.49;;;6.84;100.00
17373;BME280;8803;48.116;11.590;2024-03-29T03:08:52;94160.91;;;6.76;100.00
17373;BME280;8803;48.116;11.590;2024-03-29T03:13:27;94158.52;;;6.86;100.00
17373;BME280;8803;48.116;11.590;2024-03-29T03:15:33;94162.59;;;6.63;100.00
17373;BME280;8803;48.116;11.590;2024-03-29T03:19:53;94159.62;;;6.97;100.00
17373;BME280;8803;48.116;11.590;2024-03-29T03:24:12;94151.06;;;7.21;100.00
17373;BME280;8803;48.116;11.590;2024-03-29T03:28:31;94131.27;;;7.29;100.00
17373;BME280;8803;48.116;11.590;2024-03-29T03:32:53;94131.43;;;7.28;100.00
17373;BME280;8803;48.116;11.590;2024-03-29T03:37:12;94142.59;;;6.96;100.00
17373;BME280;8803;48.116;11.590;2024-03-29T03:41:31;94134.42;;;7.11;100.00
17373;BME280;8803;48.116;11.590;2024-03-29T03:45:48;94135.16;;;7.17;100.00
17373;BME280;8803;48.116;11.590;2024-03-29T03:50:09;94117.89;;;7.35;100.00
17373;BME280;8803;48.116;11.590;2024-03-29T03:54:28;94133.96;;;7.15;100.00
17373;BME280;8803;48.116;11.590;2024-03-29T03:58:47;94130.32;;;7.12;100.00
17373;BME280;8803;48.116;11.590;2024-03-29T04:03:06;94115.81;;;6.99;100.00
17373;BME280;8803;48.116;11.590;2024-03-29T04:07:26;94116.92;;;7.14;100.00
17373;BME280;8803;48.116;11.590;2024-03-29T04:11:45;94125.16;;;7.11;100.00
17373;BME280;8803;48.116;11.590;2024-03-29T04:16:05;94133.00;;;7.16;100.00
17373;BME280;8803;48.116;11.590;2024-03-29T04:20:24;94128.41;;;7.23;100.00
17373;BME280;8803;48.116;11.590;2024-03-29T04:24:43;94124.16;;;7.30;100.00
17373;BME280;8803;48.116;11.590;2024-03-29T04:29:02;94115.98;;;7.19;100.00
17373;BME280;8803;48.116;11.590;2024-03-29T04:33:20;94113.12;;;7.12;100.00
17373;BME280;8803;48.116;11.590;2024-03-29T04:37:39;94083.34;;;7.10;100.00
17373;BME280;8803;48.116;11.590;2024-03-29T04:41:58;94077.78;;;6.96;100.00
17373;BME280;8803;48.116;11.590;2024-03-29T04:46:15;94085.33;;;6.91;100.00
17373;BME280;8803;48.116;11.590;2024-03-29T04:50:32;94076.91;;;6.91;100.00
17373;BME280;8803;48.116;11.590;2024-03-29T04:54:51;94097.64;;;7.00;100.00
17373;BME280;8803;48.116;11.590;2024-03-29T04:59:09;94101.13;;;7.26;100.00
17373;BME280;8803;48.116;11.590;2024-03-29T05:03:29;94095.94;;;7.38;100.00
17373;BME280;8803;48.116;11.590;2024-03-29T05:07:49;94113.21;;;7.50;100.00
17373;BME280;8803;48.116;11.590;2024-03-29T05:12:09;94115.25;;;7.60;100.00
17373;BME280;8803;48.116;11.590;2024-03-29T05:16:28;94111.19;;;7.44;100.00
17373;BME280;8803;48.116;11.590;2024-03-29T05:20:45;94108.16;;;7.65;100.00
17373;BME280;8803;48.116;11.590;2024-03-29T05:25:07;94119.50;;;7.53;100.00
17373;BME280;8803;48.116;11.590;2024-03-29T05:29:27;94114.63;;;7.70;100.00
17373;BME280;8803;48.116;11.590;2024-03-29T05:33:44;94087.59;;;7.55;100.00
17373;BME280;8803;48.116;11.590;2024-03-29T05:38:03;94077.34;;;7.60;100.00
17373;BME280;8803;48.116;11.590;2024-03-29T05:42:24;94061.80;;;7.05;100.00
17373;BME280;8803;48.116;11.590;2024-03-29T05:46:42;94059.66;;;6.83;100.00
17373;BME280;8803;48.116;11.590;2024-03-29T05:51:00;94053.86;;;7.05;100.00
17373;BME280;8803;48.116;11.590;2024-03-29T05:55:21;94047.27;;;7.09;100.00
17373;BME280;8803;48.116;11.590;2024-03-29T05:59:40;94023.64;;;7.42;100.00
17373;BME280;8803;48.116;11.590;2024-03-29T06:03:58;94046.40;;;7.60;100.00
17373;BME280;8803;48.116;11.590;2024-03-29T06:08:20;94050.80;;;7.85;100.00
17373;BME280;8803;48.116;11.590;2024-03-29T06:12:40;94068.28;;;7.70;100.00
17373;BME280;8803;48.116;11.590;2024-03-29T06:17:00;94081.01;;;8.01;100.00
17373;BME280;8803;48.116;11.590;2024-03-29T06:21:36;94084.70;;;9.06;100.00
17373;BME280;8803;48.116;11.590;2024-03-29T06:25:57;94081.91;;;10.29;100.00
17373;BME280;8803;48.116;11.590;2024-03-29T06:30:16;94085.80;;;11.58;100.00
17373;BME280;8803;48.116;11.590;2024-03-29T06:34:36;94074.86;;;12.30;100.00
17373;BME280;8803;48.116;11.590;2024-03-29T06:38:55;94080.77;;;12.97;100.00
17373;BME280;8803;48.116;11.590;2024-03-29T06:43:12;94062.45;;;13.36;100.00
17373;BME280;8803;48.116;11.590;2024-03-29T06:47:31;94056.92;;;13.06;100.00
17373;BME280;8803;48.116;11.590;2024-03-29T06:51:48;94048.77;;;13.63;100.00
17373;BME280;8803;48.116;11.590;2024-03-29T06:56:07;94057.10;;;14.67;100.00
17373;BME280;8803;48.116;11.590;2024-03-29T07:00:24;94044.52;;;15.47;71.64
17373;BME280;8803;48.116;11.590;2024-03-29T07:04:43;94047.61;;;15.64;55.33
17373;BME280;8803;48.116;11.590;2024-03-29T07:09:00;94040.17;;;15.66;52.03
17373;BME280;8803;48.116;11.590;2024-03-29T07:13:19;94042.72;;;15.31;52.09
17373;BME280;8803;48.116;11.590;2024-03-29T07:15:24;94042.28;;;15.08;50.04
17373;BME280;8803;48.116;11.590;2024-03-29T07:19:43;94031.13;;;15.11;51.45
17373;BME280;8803;48.116;11.590;2024-03-29T07:24:02;94024.55;;;15.20;51.85
17373;BME280;8803;48.116;11.590;2024-03-29T07:28:21;94017.33;;;15.33;51.81
17373;BME280;8803;48.116;11.590;2024-03-29T07:32:40;94025.30;;;15.44;48.38
17373;BME280;8803;48.116;11.590;2024-03-29T07:36:58;94027.98;;;15.76;47.96
17373;BME280;8803;48.116;11.590;2024-03-29T07:41:18;94019.92;;;15.90;47.96
17373;BME280;8803;48.116;11.590;2024-03-29T07:45:37;94032.87;;;16.12;46.78
17373;BME280;8803;48.116;11.590;2024-03-29T07:49:57;94051.80;;;16.50;47.82
17373;BME280;8803;48.116;11.590;2024-03-29T07:56:30;94051.27;;;17.17;47.28
17373;BME280;8803;48.116;11.590;2024-03-29T08:00:49;94063.11;;;17.25;44.79
17373;BME280;8803;48.116;11.590;2024-03-29T08:05:07;94062.25;;;17.47;46.90
17373;BME280;8803;48.116;11.590;2024-03-29T08:09:26;94051.77;;;17.70;45.56
17373;BME280;8803;48.116;11.590;2024-03-29T08:13:45;94053.64;;;17.94;45.72
17373;BME280;8803;48.116;11.590;2024-03-29T08:18:05;94052.77;;;18.18;45.86
17373;BME280;8803;48.116;11.590;2024-03-29T08:22:25;94041.88;;;18.31;45.54
17373;BME280;8803;48.116;11.590;2024-03-29T08:26:53;94042.05;;;18.45;45.55
17373;BME280;8803;48.116;11.590;2024-03-29T08:31:10;94038.83;;;18.64;46.14
17373;BME280;8803;48.116;11.590;2024-03-29T08:35:29;94027.45;;;18.80;45.26
17373;BME280;8803;48.116;11.590;2024-03-29T08:39:48;94019.64;;;18.90;45.00
17373;BME280;8803;48.116;11.590;2024-03-29T08:44:06;94026.96;;;19.01;44.65
17373;BME280;8803;48.116;11.590;2024-03-29T08:48:26;94030.97;;;19.10;44.72
17373;BME280;8803;48.116;11.590;2024-03-29T08:52:45;94021.34;;;19.23;44.72
17373;BME280;8803;48.116;11.590;2024-03-29T08:57:03;94019.25;;;19.34;43.44
17373;BME280;8803;48.116;11.590;2024-03-29T09:01:21;94018.81;;;19.49;43.82
17373;BME280;8803;48.116;11.590;2024-03-29T09:05:40;94011.07;;;19.52;43.30
17373;BME280;8803;48.116;11.590;2024-03-29T09:10:05;94017.64;;;19.45;41.76
17373;BME280;8803;48.116;11.590;2024-03-29T09:14:23;94016.05;;;19.46;41.51
17373;BME280;8803;48.116;11.590;2024-03-29T09:18:42;94018.56;;;19.39;41.74
17373;BME280;8803;48.116;11.590;2024-03-29T09:23:07;94015.23;;;18.77;42.02
17373;BME280;8803;48.116;11.590;2024-03-29T09:27:28;94016.02;;;18.96;41.94
17373;BME280;8803;48.116;11.590;2024-03-29T09:31:45;94019.97;;;19.12;41.36
17373;BME280;8803;48.116;11.590;2024-03-29T09:36:03;94009.92;;;19.39;41.42
17373;BME280;8803;48.116;11.590;2024-03-29T09:40:22;94009.44;;;19.51;41.56
17373;BME280;8803;48.116;11.590;2024-03-29T09:44:42;94005.08;;;19.50;41.25
17373;BME280;8803;48.116;11.590;2024-03-29T09:49:05;94012.83;;;19.47;40.05
17373;BME280;8803;48.116;11.590;2024-03-29T09:53:23;94015.64;;;19.73;39.69
17373;BME280;8803;48.116;11.590;2024-03-29T09:57:42;94007.27;;;19.83;39.30
17373;BME280;8803;48.116;11.590;2024-03-29T10:02:01;94014.70;;;19.90;42.07
17373;BME280;8803;48.116;11.590;2024-03-29T10:06:23;94010.48;;;19.83;38.00
17373;BME280;8803;48.116;11.590;2024-03-29T10:10:47;94003.53;;;19.63;38.13
17373;BME280;8803;48.116;11.590;2024-03-29T10:15:09;94005.16;;;19.64;38.63
17373;BME280;8803;48.116;11.590;2024-03-29T10:19:32;94015.75;;;19.78;39.40
17373;BME280;8803;48.116;11.590;2024-03-29T10:23:50;94011.70;;;19.78;37.89
17373;BME280;8803;48.116;11.590;2024-03-29T10:28:09;93993.73;;;19.72;38.29
17373;BME280;8803;48.116;11.590;2024-03-29T10:32:30;93999.06;;;19.69;37.93
17373;BME280;8803;48.116;11.590;2024-03-29T10:36:49;93992.45;;;19.74;37.78
17373;BME280;8803;48.116;11.590;2024-03-29T10:41:12;93988.81;;;19.68;37.41
17373;BME280;8803;48.116;11.590;2024-03-29T10:45:33;93985.39;;;19.61;37.44
17373;BME280;8803;48.116;11.590;2024-03-29T10:49:52;93968.67;;;19.62;37.77
17373;BME280;8803;48.116;11.590;2024-03-29T10:54:13;93964.84;;;19.84;37.58
17373;BME280;8803;48.116;11.590;2024-03-29T10:58:33;93959.69;;;19.82;37.42
17373;BME280;8803;48.116;11.590;2024-03-29T11:02:56;93953.10;;;19.90;38.63
17373;BME280;8803;48.116;11.590;2024-03-29T11:07:19;93958.92;;;19.84;36.59
17373;BME280;8803;48.116;11.590;2024-03-29T11:11:41;93946.64;;;20.14;36.30
17373;BME280;8803;48.116;11.590;2024-03-29T11:16:00;93941.94;;;20.32;38.45
17373;BME280;8803;48.116;11.590;2024-03-29T11:20:19;93942.50;;;20.20;36.10
17373;BME280;8803;48.116;11.590;2024-03-29T11:24:44;93942.52;;;20.34;36.30
17373;BME280;8803;48.116;11.590;2024-03-29T11:29:03;93947.59;;;20.57;40.66
17373;BME280;8803;48.116;11.590;2024-03-29T11:33:33;93942.52;;;20.34;35.74
17373;BME280;8803;48.116;11.590;2024-03-29T11:38:00;93940.58;;;20.58;36.79
17373;BME280;8803;48.116;11.590;2024-03-29T11:42:36;93949.67;;;20.40;35.19
17373;BME280;8803;48.116;11.590;2024-03-29T11:46:59;93946.19;;;20.68;37.80
17373;BME280;8803;48.116;11.590;2024-03-29T11:51:22;93933.69;;;20.79;36.70
17373;BME280;8803;48.116;11.590;2024-03-29T11:55:42;93924.36;;;20.72;35.74
17373;BME280;8803;48.116;11.590;2024-03-29T12:00:01;93930.41;;;20.77;35.73
17373;BME280;8803;48.116;11.590;2024-03-29T12:02:09;93929.73;;;20.84;35.83
17373;BME280;8803;48.116;11.590;2024-03-29T12:06:38;93937.94;;;20.61;34.91
17373;BME280;8803;48.116;11.590;2024-03-29T12:11:00;93931.50;;;20.78;35.58
17373;BME280;8803;48.116;11.590;2024-03-29T12:15:20;93923.17;;;20.80;36.05
17373;BME280;8803;48.116;11.590;2024-03-29T12:19:37;93912.55;;;20.76;35.31
17373;BME280;8803;48.116;11.590;2024-03-29T12:23:58;93906.35;;;20.92;35.23
17373;BME280;8803;48.116;11.590;2024-03-29T12:28:18;93902.20;;;21.01;35.21
17373;BME280;8803;48.116;11.590;2024-03-29T12:32:37;93889.09;;;21.23;35.33
17373;BME280;8803;48.116;11.590;2024-03-29T12:36:57;93884.92;;;21.33;40.87
17373;BME280;8803;48.116;11.590;2024-03-29T12:41:16;93882.59;;;20.80;34.68
17373;BME280;8803;48.116;11.590;2024-03-29T12:45:34;93887.56;;;20.85;35.45
17373;BME280;8803;48.116;11.590;2024-03-29T12:49:54;93892.34;;;20.81;41.87
17373;BME280;8803;48.116;11.590;2024-03-29T12:54:11;93861.28;;;20.83;40.00
17373;BME280;8803;48.116;11.590;2024-03-29T12:58:29;93866.31;;;20.77;37.71
17373;BME280;8803;48.116;11.590;2024-03-29T13:02:51;93849.11;;;20.83;44.10
17373;BME280;8803;48.116;11.590;2024-03-29T13:07:10;93849.64;;;20.83;42.63
17373;BME280;8803;48.116;11.590;2024-03-29T13:11:30;93841.77;;;20.81;35.41
17373;BME280;8803;48.116;11.590;2024-03-29T13:15:48;93849.21;;;20.74;34.52
17373;BME280;8803;48.116;11.590;2024-03-29T13:20:11;93836.19;;;20.71;34.89
17373;BME280;8803;48.116;11.590;2024-03-29T13:24:28;93840.52;;;20.72;34.01
17373;BME280;8803;48.116;11.590;2024-03-29T13:28:47;93837.39;;;20.78;33.36
17373;BME280;8803;48.116;11.590;2024-03-29T13:33:06;93833.66;;;20.81;34.58
17373;BME280;8803;48.116;11.590;2024-03-29T13:37:25;93822.89;;;20.84;35.12
17373;BME280;8803;48.116;11.590;2024-03-29T13:41:44;93823.53;;;20.91;34.61
17373;BME280;8803;48.116;11.590;2024-03-29T13:46:03;93813.13;;;20.99;33.02
17373;BME280;8803;48.116;11.590;2024-03-29T13:50:23;93805.22;;;20.95;32.77
17373;BME280;8803;48.116;11.590;2024-03-29T13:54:43;93818.16;;;21.07;33.86
17373;BME280;8803;48.116;11.590;2024-03-29T13:59:01;93815.03;;;20.99;32.64
17373;BME280;8803;48.116;11.590;2024-03-29T14:03:24;93813.95;;;21.00;32.34
17373;BME280;8803;48.116;11.590;2024-03-29T14:07:43;93813.63;;;21.10;38.17
17373;BME280;8803;48.116;11.590;2024-03-29T14:12:08;93818.16;;;21.07;35.96
17373;BME280;8803;48.116;11.590;2024-03-29T14:16:29;93813.17;;;21.02;32.86
17373;BME280;8803;48.116;11.590;2024-03-29T14:20:52;93817.36;;;21.07;33.00
17373;BME280;8803;48.116;11.590;2024-03-29T14:25:11;93820.39;;;21.10;33.34
17373;BME280;8803;48.116;11.590;2024-03-29T14:29:34;93817.73;;;21.13;32.64
17373;BME280;8803;48.116;11.590;2024-03-29T14:33:53;93820.45;;;20.99;35.15
17373;BME280;8803;48.116;11.590;2024-03-29T14:38:10;93816.41;;;21.01;39.37
17373;BME280;8803;48.116;11.590;2024-03-29T14:42:30;93813.38;;;20.81;33.92
17373;BME280;8803;48.116;11.590;2024-03-29T14:46:49;93818.41;;;21.06;37.81
17373;BME280;8803;48.116;11.590;2024-03-29T14:51:08;93812.02;;;21.12;34.29
17373;BME280;8803;48.116;11.590;2024-03-29T14:55:27;93811.20;;;21.28;34.32
17373;BME280;8803;48.116;11.590;2024-03-29T14:59:46;93815.80;;;21.28;33.53
17373;BME280;8803;48.116;11.590;2024-03-29T15:04:06;93819.16;;;21.35;36.44
17373;BME280;8803;48.116;11.590;2024-03-29T15:08:25;93830.97;;;21.45;33.84
17373;BME280;8803;48.116;11.590;2024-03-29T15:10:30;93827.81;;;21.34;33.48
17373;BME280;8803;48.116;11.590;2024-03-29T15:12:38;93834.32;;;21.36;36.96
17373;BME280;8803;48.116;11.590;2024-03-29T15:14:43;93833.59;;;21.40;34.53
17373;BME280;8803;48.116;11.590;2024-03-29T15:19:01;93837.56;;;21.18;32.74
17373;BME280;8803;48.116;11.590;2024-03-29T15:23:21;93844.37;;;21.38;34.33
17373;BME280;8803;48.116;11.590;2024-03-29T15:27:39;93843.84;;;21.38;33.11
17373;BME280;8803;48.116;11.590;2024-03-29T15:32:21;93846.81;;;21.20;32.34
17373;BME280;8803;48.116;11.590;2024-03-29T15:36:43;93855.16;;;21.35;32.62
17373;BME280;8803;48.116;11.590;2024-03-29T15:41:03;93859.56;;;21.39;32.88
17373;BME280;8803;48.116;11.590;2024-03-29T15:45:24;93851.92;;;21.19;32.64
17373;BME280;8803;48.116;11.590;2024-03-29T15:49:41;93855.98;;;21.19;32.73
17373;BME280;8803;48.116;11.590;2024-03-29T15:54:02;93853.38;;;21.24;32.65
17373;BME280;8803;48.116;11.590;2024-03-29T15:58:22;93862.75;;;21.19;32.64
17373;BME280;8803;48.116;11.590;2024-03-29T16:02:45;93867.80;;;21.13;32.81
17373;BME280;8803;48.116;11.590;2024-03-29T16:07:02;93875.34;;;20.97;32.46
17373;BME280;8803;48.116;11.590;2024-03-29T16:11:23;93874.39;;;21.03;33.08
17373;BME280;8803;48.116;11.590;2024-03-29T16:17:56;93873.41;;;20.81;33.24
17373;BME280;8803;48.116;11.590;2024-03-29T16:22:14;93874.70;;;20.78;33.58
17373;BME280;8803;48.116;11.590;2024-03-29T16:26:33;93876.88;;;20.79;41.48
17373;BME280;8803;48.116;11.590;2024-03-29T16:30:50;93886.45;;;20.41;34.34
17373;BME280;8803;48.116;11.590;2024-03-29T16:35:10;93882.45;;;20.44;42.78
17373;BME280;8803;48.116;11.590;2024-03-29T16:39:27;93881.78;;;20.25;34.82
17373;BME280;8803;48.116;11.590;2024-03-29T16:43:45;93881.85;;;20.16;34.38
17373;BME280;8803;48.116;11.590;2024-03-29T16:48:05;93878.75;;;20.10;34.33
17373;BME280;8803;48.116;11.590;2024-03-29T16:52:27;93877.93;;;19.98;35.88
17373;BME280;8803;48.116;11.590;2024-03-29T16:56:46;93875.60;;;19.90;36.35
17373;BME280;8803;48.116;11.590;2024-03-29T17:01:05;93880.14;;;19.76;34.86
17373;BME280;8803;48.116;11.590;2024-03-29T17:05:22;93878.39;;;19.81;37.45
17373;BME280;8803;48.116;11.590;2024-03-29T17:09:42;93874.21;;;19.64;34.73
17373;BME280;8803;48.116;11.590;2024-03-29T17:14:01;93879.76;;;19.58;34.07
17373;BME280;8803;48.116;11.590;2024-03-29T17:18:22;93876.59;;;19.49;34.43
17373;BME280;8803;48.116;11.590;2024-03-29T17:22:44;93887.59;;;19.48;34.68
17373;BME280;8803;48.116;11.590;2024-03-29T17:27:04;93881.45;;;19.38;34.74
17373;BME280;8803;48.116;11.590;2024-03-29T17:31:33;93885.01;;;19.41;35.15
17373;BME280;8803;48.116;11.590;2024-03-29T17:35:55;93892.31;;;19.32;35.69
17373;BME280;8803;48.116;11.590;2024-03-29T17:40:13;93892.28;;;19.20;36.07
17373;BME280;8803;48.116;11.590;2024-03-29T17:44:32;93898.82;;;19.22;35.80
17373;BME280;8803;48.116;11.590;2024-03-29T17:48:51;93894.53;;;19.12;36.94
17373;BME280;8803;48.116;11.590;2024-03-29T17:53:10;93908.39;;;19.06;35.69
17373;BME280;8803;48.116;11.590;2024-03-29T17:57:29;93908.97;;;18.97;35.99
17373;BME280;8803;48.116;11.590;2024-03-29T18:01:48;93916.66;;;19.02;41.47
17373;BME280;8803;48.116;11.590;2024-03-29T18:06:07;93924.18;;;18.91;38.86
17373;BME280;8803;48.116;11.590;2024-03-29T18:10:27;93926.59;;;18.90;39.81
17373;BME280;8803;48.116;11.590;2024-03-29T18:14:46;93931.66;;;18.77;38.08
17373;BME280;8803;48.116;11.590;2024-03-29T18:19:05;93936.78;;;18.67;39.47
17373;BME280;8803;48.116;11.590;2024-03-29T18:23:23;93948.83;;;18.65;46.62
17373;BME280;8803;48.116;11.590;2024-03-29T18:27:40;93954.38;;;18.61;42.88
17373;BME280;8803;48.116;11.590;2024-03-29T18:31:59;93950.34;;;18.52;46.56
17373;BME280;8803;48.116;11.590;2024-03-29T18:36:17;93940.60;;;18.42;43.81
17373;BME280;8803;48.116;11.590;2024-03-29T18:40:36;93950.03;;;18.24;38.84
17373;BME280;8803;48.116;11.590;2024-03-29T18:45:01;93951.92;;;18.23;40.74
17373;BME280;8803;48.116;11.590;2024-03-29T18:49:20;93954.02;;;18.21;46.79
17373;BME280;8803;48.116;11.590;2024-03-29T18:53:39;93969.42;;;18.14;41.92
17373;BME280;8803;48.116;11.590;2024-03-29T18:58:07;93971.06;;;18.24;57.57
17373;BME280;8803;48.116;11.590;2024-03-29T19:02:28;93970.53;;;18.15;53.96
17373;BME280;8803;48.116;11.590;2024-03-29T19:06:49;93971.00;;;18.12;59.20
17373;BME280;8803;48.116;11.590;2024-03-29T19:11:10;93980.09;;;18.02;55.53
17373;BME280;8803;48.116;11.590;2024-03-29T19:15:29;93989.22;;;17.92;51.38
17373;BME280;8803;48.116;11.590;2024-03-29T19:19:48;93984.92;;;17.76;43.99
17373;BME280;8803;48.116;11.590;2024-03-29T19:24:07;93989.14;;;17.81;49.38
17373;BME280;8803;48.116;11.590;2024-03-29T19:28:26;93991.91;;;17.83;57.43
17373;BME280;8803;48.116;11.590;2024-03-29T19:32:55;93998.78;;;17.88;61.63
17373;BME280;8803;48.116;11.590;2024-03-29T19:37:12;94002.14;;;17.84;57.99
17373;BME280;8803;48.116;11.590;2024-03-29T19:41:30;94005.95;;;17.76;52.25
17373;BME280;8803;48.116;11.590;2024-03-29T19:43:35;94013.66;;;17.82;63.93
17373;BME280;8803;48.116;11.590;2024-03-29T19:47:56;94008.09;;;17.68;44.98
17373;BME280;8803;48.116;11.590;2024-03-29T19:52:15;94016.25;;;17.70;43.86
17373;BME280;8803;48.116;11.590;2024-03-29T19:56:34;94021.12;;;17.71;46.69
17373;BME280;8803;48.116;11.590;2024-03-29T20:00:53;94029.31;;;17.67;44.98
17373;BME280;8803;48.116;11.590;2024-03-29T20:05:12;94031.66;;;17.72;46.63
17373;BME280;8803;48.116;11.590;2024-03-29T20:09:36;94029.48;;;17.72;52.60
17373;BME280;8803;48.116;11.590;2024-03-29T20:13:55;94027.30;;;17.62;41.86
17373;BME280;8803;48.116;11.590;2024-03-29T20:18:14;94025.73;;;17.64;46.99
17373;BME280;8803;48.116;11.590;2024-03-29T20:22:33;94020.69;;;17.43;39.03
17373;BME280;8803;48.116;11.590;2024-03-29T20:26:50;94028.00;;;17.51;42.90
17373;BME280;8803;48.116;11.590;2024-03-29T20:31:09;94029.68;;;17.46;41.86
17373;BME280;8803;48.116;11.590;2024-03-29T20:35:26;94033.48;;;17.54;44.21
17373;BME280;8803;48.116;11.590;2024-03-29T20:39:45;94031.07;;;17.55;40.04
17373;BME280;8803;48.116;11.590;2024-03-29T20:44:04;94033.71;;;17.61;43.95
17373;BME280;8803;48.116;11.590;2024-03-29T20:48:23;94036.36;;;17.52;43.67
17373;BME280;8803;48.116;11.590;2024-03-29T20:52:45;94039.75;;;17.41;41.17
17373;BME280;8803;48.116;11.590;2024-03-29T20:54:53;94043.22;;;17.32;41.16
17373;BME280;8803;48.116;11.590;2024-03-29T20:59:12;94042.67;;;17.33;44.76
17373;BME280;8803;48.116;11.590;2024-03-29T21:03:30;94046.95;;;17.16;41.91
17373;BME280;8803;48.116;11.590;2024-03-29T21:08:07;94039.53;;;16.89;41.75
17373;BME280;8803;48.116;11.590;2024-03-29T21:12:26;94051.21;;;17.08;58.46
17373;BME280;8803;48.116;11.590;2024-03-29T21:16:45;94046.89;;;17.07;57.79
17373;BME280;8803;48.116;11.590;2024-03-29T21:21:05;94050.28;;;17.11;66.66
17373;BME280;8803;48.116;11.590;2024-03-29T21:25:24;94052.23;;;17.13;70.70
17373;BME280;8803;48.116;11.590;2024-03-29T21:29:41;94057.84;;;17.12;67.17
17373;BME280;8803;48.116;11.590;2024-03-29T21:34:00;94059.38;;;17.10;70.43
17373;BME280;8803;48.116;11.590;2024-03-29T21:38:20;94057.01;;;17.11;73.67
17373;BME280;8803;48.116;11.590;2024-03-29T21:42:40;94060.62;;;17.08;67.21
17373;BME280;8803;48.116;11.590;2024-03-29T21:47:00;94064.05;;;17.06;71.14
17373;BME280;8803;48.116;11.590;2024-03-29T21:51:20;94059.50;;;17.06;78.74
17373;BME280;8803;48.116;11.590;2024-03-29T21:55:41;94054.26;;;17.02;77.59
17373;BME280;8803;48.116;11.590;2024-03-29T22:00:03;94061.23;;;16.94;64.43
17373;BME280;8803;48.116;11.590;2024-03-29T22:04:24;94070.20;;;16.97;75.62
17373;BME280;8803;48.116;11.590;2024-03-29T22:08:43;94078.80;;;16.97;75.71
17373;BME280;8803;48.116;11.590;2024-03-29T22:13:02;94083.03;;;16.95;80.57
17373;BME280;8803;48.116;11.590;2024-03-29T22:15:08;94092.05;;;16.92;82.41
17373;BME280;8803;48.116;11.590;2024-03-29T22:19:28;94087.67;;;16.97;88.30
17373;BME280;8803;48.116;11.590;2024-03-29T22:23:45;94092.86;;;16.99;88.75
17373;BME280;8803;48.116;11.590;2024-03-29T22:28:04;94090.36;;;16.97;88.49
17373;BME280;8803;48.116;11.590;2024-03-29T22:32:25;94081.73;;;16.60;52.33
17373;BME280;8803;48.116;11.590;2024-03-29T22:36:44;94090.11;;;16.48;48.99
17373;BME280;8803;48.116;11.590;2024-03-29T22:41:04;94082.17;;;16.57;65.15